Time;durP1;ratioP1;P1;durP2;ratioP2;P2;SDS_P1;SDS_P2;PMS_P1;PMS_P2;Temp;Humidity;BMP_temperature;BMP_pressure;BME280_temperature;BME280_humidity;BME280_pressure;Samples;Min_cycle;Max_cycle;Signal;HPM_P1;HPM_P2
2021/08/10 00:01:38;;;;;;;1.03;1.03;;;;;;;22.39;100.00;97776.97;5010904;28;20314;-72
2021/08/10 00:04:05;;;;;;;1.10;1.10;;;;;;;22.39;100.00;97769.28;5010227;28;20198;-71
2021/08/10 00:06:32;;;;;;;1.13;1.10;;;;;;;22.46;100.00;97780.56;4994704;28;20231;-69
2021/08/10 00:08:58;;;;;;;1.40;1.30;;;;;;;22.48;100.00;97784.94;5007915;28;20709;-73
2021/08/10 00:11:25;;;;;;;1.30;1.20;;;;;;;22.39;100.00;97764.16;5011820;28;20206;-68
2021/08/10 00:13:51;;;;;;;1.70;1.20;;;;;;;22.48;100.00;97779.81;4994385;28;20321;-67
2021/08/10 00:16:18;;;;;;;1.10;1.10;;;;;;;22.48;100.00;97784.94;5011879;28;20230;-69
2021/08/10 00:18:45;;;;;;;1.67;1.10;;;;;;;22.48;100.00;97787.47;5008978;28;20206;-73
2021/08/10 00:21:11;;;;;;;1.13;1.10;;;;;;;22.40;100.00;97770.13;5010244;28;20298;-68
2021/08/10 00:23:38;;;;;;;1.23;1.13;;;;;;;22.48;100.00;97781.47;5010525;28;21365;-68
2021/08/10 00:26:05;;;;;;;1.10;1.00;;;;;;;22.44;100.00;97774.53;5007792;28;20257;-69
2021/08/10 00:28:31;;;;;;;1.40;1.30;;;;;;;22.48;100.00;97779.81;5011183;28;20304;-67
2021/08/10 00:30:58;;;;;;;0.90;0.90;;;;;;;22.48;100.00;97791.72;5007978;28;20252;-67
2021/08/10 00:33:24;;;;;;;1.13;1.13;;;;;;;22.47;100.00;97785.72;5010913;28;20209;-68
2021/08/10 00:35:51;;;;;;;1.27;1.20;;;;;;;22.40;100.00;97772.69;5010905;28;20313;-68
2021/08/10 00:38:17;;;;;;;1.20;1.17;;;;;;;22.47;100.00;97790.84;5008539;28;20241;-68
2021/08/10 00:40:44;;;;;;;1.10;1.10;;;;;;;22.47;100.00;97787.44;5009324;28;20289;-68
2021/08/10 00:43:27;;;;;;;1.40;1.20;;;;;;;22.44;100.00;97775.38;5010101;28;20329;-68
2021/08/10 00:45:53;;;;;;;1.40;1.30;;;;;;;22.39;100.00;97770.97;5010457;28;20331;-67
2021/08/10 00:48:20;;;;;;;1.20;1.20;;;;;;;22.44;100.00;97777.94;5009725;28;20581;-68
2021/08/10 00:50:47;;;;;;;1.00;1.00;;;;;;;22.05;100.00;97706.78;5012837;28;20237;-71
2021/08/10 00:53:13;;;;;;;1.60;1.30;;;;;;;22.43;100.00;97775.34;4994457;28;20285;-68
2021/08/10 00:55:40;;;;;;;1.10;1.10;;;;;;;22.31;100.00;97757.94;5012068;28;20755;-68
2021/08/10 00:58:07;;;;;;;1.20;1.20;;;;;;;22.40;100.00;97775.25;5012012;28;20730;-68
2021/08/10 01:00:33;;;;;;;1.00;1.00;;;;;;;22.30;100.00;97765.56;5009407;28;20297;-75
2021/08/10 01:03:00;;;;;;;1.10;1.10;;;;;;;22.37;100.00;97787.97;5004423;28;20617;-71
2021/08/10 01:05:27;;;;;;;1.63;1.27;;;;;;;22.36;100.00;97799.03;5005822;28;20230;-74
2021/08/10 01:08:33;;;;;;;1.20;1.10;;;;;;;22.34;100.00;97791.31;4996490;28;20321;-73
2021/08/10 01:11:30;;;;;;;1.83;1.40;;;;;;;22.32;100.00;97785.28;5007739;28;20283;-72
2021/08/10 01:13:59;;;;;;;3.10;1.30;;;;;;;22.27;100.00;97784.28;5013575;28;20284;-68
2021/08/10 01:16:51;;;;;;;1.17;1.07;;;;;;;22.31;100.00;97790.34;5008046;28;20218;-69
2021/08/10 01:19:46;;;;;;;2.70;1.20;;;;;;;22.30;100.00;97789.50;5006469;28;20205;-69
2021/08/10 01:22:15;;;;;;;1.50;1.40;;;;;;;22.30;100.00;97792.06;5011544;28;20720;-68
2021/08/10 01:24:47;;;;;;;1.27;1.10;;;;;;;22.14;100.00;97769.34;5009749;28;20265;-68
2021/08/10 01:27:41;;;;;;;1.30;1.20;;;;;;;22.28;100.00;97783.44;4991979;28;20237;-67
2021/08/10 01:30:14;;;;;;;1.47;1.20;;;;;;;22.28;100.00;97778.31;5009303;28;20209;-68
2021/08/10 01:32:42;;;;;;;1.03;1.03;;;;;;;22.30;100.00;97778.38;4996950;28;20289;-69
2021/08/10 01:35:09;;;;;;;1.30;1.20;;;;;;;22.23;100.00;97761.94;4993720;28;20222;-69
2021/08/10 01:37:35;;;;;;;1.27;1.20;;;;;;;22.32;100.00;97775.03;5014397;28;20280;-71
2021/08/10 01:40:10;;;;;;;1.27;1.17;;;;;;;22.34;100.00;97773.38;4999485;28;20206;-69
2021/08/10 01:42:37;;;;;;;1.10;1.10;;;;;;;22.35;100.00;97770.00;4992712;28;20224;-70
2021/08/10 01:45:05;;;;;;;1.10;1.10;;;;;;;22.24;100.00;97748.34;5017194;28;20687;-70
2021/08/10 01:47:32;;;;;;;1.50;1.40;;;;;;;22.39;100.00;97771.84;5019304;28;20288;-70
2021/08/10 01:49:59;;;;;;;1.33;1.23;;;;;;;22.41;100.00;97774.44;4998406;28;20669;-70
2021/08/10 01:52:26;;;;;;;1.40;1.30;;;;;;;22.42;100.00;97765.94;5003413;28;20620;-71
2021/08/10 01:54:52;;;;;;;1.47;1.30;;;;;;;22.39;100.00;97761.59;4993720;28;20222;-71
2021/08/10 01:57:19;;;;;;;1.07;1.07;;;;;;;22.43;100.00;97765.09;5005154;28;20245;-68
2021/08/10 01:59:47;;;;;;;1.50;1.40;;;;;;;22.36;100.00;97758.06;5018280;28;20202;-68
2021/08/10 02:02:13;;;;;;;1.10;1.10;;;;;;;22.46;100.00;97767.75;5001628;28;20671;-68
2021/08/10 02:04:41;;;;;;;1.13;1.13;;;;;;;22.46;100.00;97765.19;4984352;28;20211;-64
2021/08/10 02:07:08;;;;;;;1.50;1.40;;;;;;;22.47;100.00;97761.81;5007623;28;20344;-68
2021/08/10 02:09:34;;;;;;;1.20;1.10;;;;;;;22.47;100.00;97760.13;5017934;28;20618;-68
2021/08/10 02:12:01;;;;;;;1.33;1.23;;;;;;;22.49;100.00;97755.03;4974442;28;20242;-70
2021/08/10 02:14:28;;;;;;;1.20;1.20;;;;;;;22.50;100.00;97756.78;4999637;28;20237;-68
2021/08/10 02:17:00;;;;;;;3.43;1.30;;;;;;;22.41;100.00;97739.44;5000568;28;20675;-68
2021/08/10 02:19:28;;;;;;;1.20;1.20;;;;;;;22.47;100.00;97743.91;4999215;28;20252;-67
2021/08/10 02:22:03;;;;;;;1.10;1.10;;;;;;;22.50;100.00;97742.31;4996859;28;20659;-69
2021/08/10 02:24:38;;;;;;;1.20;1.20;;;;;;;22.51;100.00;97745.75;5013393;28;20889;-69
2021/08/10 02:27:07;;;;;;;1.27;1.20;;;;;;;22.51;100.00;97749.19;5011142;28;20236;-68
2021/08/10 02:29:36;;;;;;;1.30;1.20;;;;;;;22.52;100.00;97743.22;5013978;28;20289;-67
2021/08/10 02:32:02;;;;;;;1.30;1.20;;;;;;;22.52;100.00;97742.34;4994064;28;20640;-70
2021/08/10 02:34:29;;;;;;;1.40;1.23;;;;;;;22.48;100.00;97737.94;4997044;28;20249;-68
2021/08/10 02:36:57;;;;;;;1.30;1.20;;;;;;;22.36;100.00;97707.75;5013884;28;20288;-71
2021/08/10 02:39:24;;;;;;;1.17;1.17;;;;;;;22.41;100.00;97718.97;5015331;28;20293;-68
2021/08/10 02:41:51;;;;;;;1.30;1.20;;;;;;;22.53;100.00;97736.44;5003324;28;20894;-68
2021/08/10 02:44:18;;;;;;;1.20;1.20;;;;;;;22.49;100.00;97727.75;4998049;28;20228;-67
2021/08/10 02:46:44;;;;;;;1.20;1.20;;;;;;;22.26;100.00;97689.50;5096128;23;20233;-66
2021/08/10 02:49:11;;;;;;;1.33;1.30;;;;;;;22.54;100.00;97735.59;5007992;28;20288;-64
2021/08/10 02:51:38;;;;;;;1.70;1.60;;;;;;;22.53;100.00;97734.72;5014402;28;20233;-66
2021/08/10 02:54:05;;;;;;;1.30;1.30;;;;;;;22.54;100.00;97738.16;5014429;28;20237;-66
2021/08/10 02:56:33;;;;;;;1.20;1.20;;;;;;;22.55;100.00;97739.88;5015113;28;20225;-64
2021/08/10 02:59:06;;;;;;;1.47;1.37;;;;;;;22.54;100.00;97730.47;5012053;28;20300;-66
2021/08/10 03:01:35;;;;;;;1.40;1.30;;;;;;;22.48;100.00;97723.47;5019736;28;20300;-67
2021/08/10 03:04:02;;;;;;;1.20;1.20;;;;;;;22.51;100.00;97727.81;5001986;28;20217;-66
2021/08/10 03:06:30;;;;;;;1.37;1.27;;;;;;;22.54;100.00;97733.03;5006460;28;20646;-66
2021/08/10 03:08:58;;;;;;;1.43;1.33;;;;;;;22.55;100.00;97734.75;5017605;28;20238;-66
2021/08/10 03:11:33;;;;;;;1.40;1.30;;;;;;;22.54;100.00;97739.03;5018105;28;20225;-67
2021/08/10 03:14:00;;;;;;;1.17;1.10;;;;;;;22.55;100.00;97742.44;5010250;28;20300;-66
2021/08/10 03:16:28;;;;;;;1.40;1.30;;;;;;;22.55;100.00;97737.31;5018746;28;20629;-67
2021/08/10 03:18:55;;;;;;;1.10;1.10;;;;;;;22.43;100.00;97716.44;5018548;28;20202;-66
2021/08/10 03:21:21;;;;;;;1.50;1.40;;;;;;;22.55;100.00;97737.31;5001383;28;20744;-66
2021/08/10 03:23:48;;;;;;;1.20;1.20;;;;;;;22.54;100.00;97736.47;5014569;28;20258;-66
2021/08/10 03:26:15;;;;;;;1.33;1.23;;;;;;;22.55;100.00;97735.63;5005895;28;20259;-67
2021/08/10 03:28:43;;;;;;;1.40;1.30;;;;;;;22.55;100.00;97734.75;5015075;28;20335;-67
2021/08/10 03:31:10;;;;;;;1.43;1.33;;;;;;;22.55;100.00;97734.75;5002490;28;20606;-66
2021/08/10 03:33:37;;;;;;;2.70;1.13;;;;;;;22.54;100.00;97733.91;5014489;28;20198;-66
2021/08/10 03:36:04;;;;;;;3.30;1.30;;;;;;;22.55;100.00;97732.19;5016000;28;20308;-66
2021/08/10 03:38:31;;;;;;;1.20;1.20;;;;;;;22.54;100.00;97721.09;5002798;28;20299;-67
2021/08/10 03:40:58;;;;;;;1.80;1.23;;;;;;;22.56;100.00;97731.38;5016316;28;20234;-66
2021/08/10 03:43:24;;;;;;;1.27;1.17;;;;;;;22.51;100.00;97721.00;5014092;28;20494;-66
2021/08/10 03:45:52;;;;;;;1.90;1.23;;;;;;;22.56;100.00;97728.84;5004413;28;20679;-66
2021/08/10 03:48:19;;;;;;;1.50;1.40;;;;;;;22.56;100.00;97728.84;5002981;28;20202;-66
2021/08/10 03:50:46;;;;;;;1.20;1.20;;;;;;;22.55;100.00;97730.50;5015097;28;20292;-65
2021/08/10 03:53:13;;;;;;;1.10;1.10;;;;;;;22.55;100.00;97730.50;5019474;28;20285;-65
2021/08/10 03:55:39;;;;;;;1.20;1.20;;;;;;;22.52;100.00;97719.31;5015192;28;20225;-67
2021/08/10 03:58:06;;;;;;;1.27;1.20;;;;;;;22.55;100.00;97729.63;4993958;28;20290;-67
2021/08/10 04:00:36;;;;;;;3.20;1.30;;;;;;;22.35;100.00;97700.84;4997699;28;20234;-67
2021/08/10 04:03:05;;;;;;;2.87;1.60;;;;;;;22.55;100.00;97745.00;5012145;28;20574;-65
2021/08/10 04:05:32;;;;;;;1.10;1.10;;;;;;;22.51;100.00;97730.38;5005714;28;20221;-66
2021/08/10 04:08:00;;;;;;;1.30;1.20;;;;;;;22.55;100.00;97738.19;4991894;28;20297;-67
2021/08/10 04:10:27;;;;;;;1.07;1.07;;;;;;;22.52;100.00;97729.53;5011861;28;20293;-66
2021/08/10 04:12:54;;;;;;;1.17;1.17;;;;;;;22.50;100.00;97726.94;5012382;28;20233;-67
2021/08/10 04:15:20;;;;;;;1.53;1.43;;;;;;;22.51;100.00;97727.81;5011863;28;20226;-66
2021/08/10 04:17:47;;;;;;;1.40;1.30;;;;;;;22.52;100.00;97735.53;5012361;28;20660;-64
2021/08/10 04:20:13;;;;;;;1.20;1.20;;;;;;;22.55;100.00;97748.44;5010096;28;20658;-63
2021/08/10 04:22:41;;;;;;;1.87;1.20;;;;;;;22.56;100.00;97749.31;5013430;28;20238;-66
2021/08/10 04:25:08;;;;;;;1.20;1.20;;;;;;;22.56;100.00;97751.88;5009999;28;20237;-67
2021/08/10 04:27:35;;;;;;;1.10;1.10;;;;;;;22.56;100.00;97749.31;5011053;28;20258;-67
2021/08/10 04:30:02;;;;;;;1.10;1.10;;;;;;;22.56;100.00;97749.31;5009712;28;20683;-66
2021/08/10 04:32:28;;;;;;;1.17;1.17;;;;;;;22.55;100.00;97745.88;5012917;28;20248;-63
2021/08/10 04:34:55;;;;;;;1.20;1.20;;;;;;;22.56;100.00;97757.00;5014692;28;20766;-66
2021/08/10 04:37:22;;;;;;;1.30;1.20;;;;;;;22.56;100.00;97755.28;5012483;28;20609;-66
2021/08/10 04:39:48;;;;;;;1.30;1.20;;;;;;;22.56;100.00;97751.88;5012800;28;20241;-67
2021/08/10 04:42:15;;;;;;;1.10;1.10;;;;;;;22.56;100.00;97744.19;5011026;28;20233;-66
2021/08/10 04:44:41;;;;;;;1.30;1.20;;;;;;;22.56;100.00;97746.75;5013291;28;20249;-66
2021/08/10 04:47:08;;;;;;;2.90;1.30;;;;;;;22.56;100.00;97755.28;5013306;28;20231;-66
2021/08/10 04:49:34;;;;;;;1.17;1.17;;;;;;;22.56;100.00;97744.19;5012778;28;20751;-66
2021/08/10 04:52:02;;;;;;;1.40;1.30;;;;;;;22.57;100.00;97740.81;5011862;28;20296;-66
2021/08/10 04:54:29;;;;;;;1.00;1.00;;;;;;;22.56;100.00;97742.47;5019775;28;20237;-65
2021/08/10 04:56:55;;;;;;;1.30;1.20;;;;;;;22.56;100.00;97741.63;5012708;28;20649;-65
2021/08/10 04:59:22;;;;;;;1.30;1.20;;;;;;;22.57;100.00;97740.81;5016829;28;20201;-67
2021/08/10 05:01:49;;;;;;;1.40;1.30;;;;;;;22.56;100.00;97739.91;5016676;28;20302;-66
2021/08/10 05:04:15;;;;;;;1.30;1.20;;;;;;;22.56;100.00;97739.91;5010036;28;20222;-67
2021/08/10 05:06:42;;;;;;;1.23;1.13;;;;;;;22.57;100.00;97733.13;5010642;28;20265;-66
2021/08/10 05:09:09;;;;;;;2.10;1.87;;;;;;;22.57;99.86;97738.25;5015442;28;20968;-67
2021/08/10 05:11:36;;;;;;;1.83;1.73;;;;;;;22.57;98.61;97735.69;5012413;28;20676;-66
2021/08/10 05:14:02;;;;;;;2.33;2.03;;;;;;;22.52;97.60;97724.41;5012512;28;20285;-67
2021/08/10 05:16:29;;;;;;;4.20;2.20;;;;;;;22.56;96.74;97736.50;5015614;28;20939;-65
2021/08/10 05:18:56;;;;;;;5.63;2.50;;;;;;;22.53;96.11;97737.28;5012444;28;20260;-66
2021/08/10 05:21:22;;;;;;;3.77;2.33;;;;;;;22.53;95.88;97737.28;5016781;28;20343;-66
2021/08/10 05:23:49;;;;;;;3.67;2.30;;;;;;;22.53;94.96;97737.28;5013014;28;20268;-71
2021/08/10 05:26:16;;;;;;;5.60;2.83;;;;;;;22.52;95.00;97738.09;5011552;28;20261;-66
2021/08/10 05:28:43;;;;;;;6.13;3.03;;;;;;;22.52;94.60;97733.00;5013818;28;20288;-66
2021/08/10 05:31:09;;;;;;;5.00;2.70;;;;;;;22.51;94.86;97735.50;5007745;28;20308;-65
2021/08/10 05:33:36;;;;;;;5.77;3.13;;;;;;;22.51;94.92;97736.38;5014475;28;20215;-66
2021/08/10 05:36:03;;;;;;;3.87;2.53;;;;;;;22.45;94.73;97720.81;5016133;28;20256;-66
2021/08/10 05:38:30;;;;;;;7.97;2.90;;;;;;;22.50;94.92;97729.50;4991038;28;20312;-64
2021/08/10 05:40:57;;;;;;;7.10;3.00;;;;;;;22.51;94.78;97732.94;5003317;28;20205;-66
2021/08/10 05:43:24;;;;;;;3.43;2.80;;;;;;;22.51;94.65;97740.63;5008617;28;20782;-65
2021/08/10 05:45:50;;;;;;;5.97;3.10;;;;;;;22.50;94.41;97737.19;5009733;28;20326;-67
2021/08/10 05:48:17;;;;;;;5.47;3.50;;;;;;;22.50;94.04;97731.19;5005528;28;20293;-65
2021/08/10 05:50:46;;;;;;;7.97;3.30;;;;;;;22.49;94.04;97732.88;5008508;28;20229;-64
2021/08/10 05:53:12;;;;;;;7.57;3.33;;;;;;;22.49;93.77;97738.00;5006207;28;20289;-65
2021/08/10 05:55:39;;;;;;;4.87;3.80;;;;;;;22.49;93.59;97739.66;5012813;28;20300;-67
2021/08/10 05:58:05;;;;;;;5.37;3.57;;;;;;;22.47;93.94;97747.31;5003898;28;20236;-67
2021/08/10 06:00:32;;;;;;;6.90;4.00;;;;;;;22.47;94.35;97749.88;5009023;28;20236;-66
2021/08/10 06:02:59;;;;;;;6.13;3.93;;;;;;;22.47;94.84;97747.31;5002899;28;20202;-66
2021/08/10 06:05:25;;;;;;;10.57;3.97;;;;;;;22.47;95.13;97751.59;5003340;28;20222;-67
2021/08/10 06:07:52;;;;;;;4.43;3.43;;;;;;;22.47;95.10;97752.44;5000983;28;20259;-66
2021/08/10 06:10:19;;;;;;;8.80;3.70;;;;;;;22.47;94.56;97749.03;5003004;28;20285;-67
2021/08/10 06:12:45;;;;;;;6.17;4.00;;;;;;;22.47;94.78;97744.75;5011065;28;20236;-67
2021/08/10 06:15:12;;;;;;;7.57;3.50;;;;;;;22.45;94.36;97764.34;5004807;28;20198;-65
2021/08/10 06:17:39;;;;;;;7.10;4.10;;;;;;;22.43;94.35;97755.75;5006489;28;20288;-66
2021/08/10 06:20:06;;;;;;;20.93;4.70;;;;;;;22.41;94.39;97764.22;5001121;28;20640;-65
2021/08/10 06:22:33;;;;;;;11.10;4.70;;;;;;;22.38;94.32;97767.53;5008306;28;20296;-67
2021/08/10 06:24:59;;;;;;;11.60;4.47;;;;;;;22.35;94.33;97770.00;5001966;28;20699;-63
2021/08/10 06:27:26;;;;;;;9.53;4.67;;;;;;;22.33;94.27;97765.66;5007857;28;20643;-66
2021/08/10 06:29:52;;;;;;;10.10;4.20;;;;;;;22.31;94.31;97762.19;5007807;28;20680;-66
2021/08/10 06:32:19;;;;;;;9.70;4.40;;;;;;;22.30;95.00;97755.34;5008333;28;20203;-66
2021/08/10 06:34:46;;;;;;;10.37;4.33;;;;;;;22.29;95.19;97753.59;5007027;28;20280;-67
2021/08/10 06:37:12;;;;;;;10.77;4.40;;;;;;;22.30;95.45;97755.34;5009883;28;20313;-66
2021/08/10 06:39:39;;;;;;;9.03;4.50;;;;;;;22.30;95.50;97763.00;5007316;28;20297;-66
2021/08/10 06:42:05;;;;;;;6.50;4.10;;;;;;;22.30;95.20;97769.00;5010151;28;20238;-66
2021/08/10 06:44:32;;;;;;;5.67;3.87;;;;;;;22.32;94.83;97776.75;5007343;28;20253;-67
2021/08/10 06:46:59;;;;;;;7.87;4.03;;;;;;;22.31;94.65;97768.19;5008772;28;20326;-66
2021/08/10 06:49:26;;;;;;;7.37;4.23;;;;;;;22.32;94.25;97769.91;5013446;28;20260;-67
2021/08/10 06:51:53;;;;;;;8.40;3.60;;;;;;;22.34;94.14;97775.06;5013686;28;20293;-66
2021/08/10 06:54:20;;;;;;;8.87;3.73;;;;;;;22.33;93.98;97766.53;5006129;28;20459;-67
2021/08/10 06:56:46;;;;;;;8.00;4.17;;;;;;;22.34;93.72;97768.28;5015070;28;20343;-66
2021/08/10 06:59:13;;;;;;;6.97;3.77;;;;;;;22.34;93.56;97755.47;5014582;28;20289;-66
2021/08/10 07:01:39;;;;;;;10.60;4.23;;;;;;;22.35;93.25;97759.75;5015445;28;20237;-66
2021/08/10 07:04:11;;;;;;;14.83;4.93;;;;;;;22.35;93.40;97756.34;5008300;28;20611;-66
2021/08/10 07:06:37;;;;;;;23.23;4.63;;;;;;;22.35;93.27;97753.78;5006998;28;20253;-66
2021/08/10 07:09:05;;;;;;;15.20;4.23;;;;;;;22.36;93.30;97758.06;5014745;28;20529;-66
2021/08/10 07:11:34;;;;;;;9.50;4.10;;;;;;;22.36;93.13;97756.38;5014274;28;20251;-66
2021/08/10 07:14:00;;;;;;;8.57;4.10;;;;;;;22.37;93.27;97767.47;5009201;28;20341;-66
2021/08/10 07:16:29;;;;;;;9.27;3.83;;;;;;;22.38;93.24;97764.97;5011062;28;20231;-63
2021/08/10 07:18:56;;;;;;;11.53;4.40;;;;;;;22.38;93.33;97762.41;5005003;28;20209;-65
2021/08/10 07:21:22;;;;;;;9.17;4.27;;;;;;;22.37;93.22;97763.25;5014483;28;20233;-67
2021/08/10 07:23:49;;;;;;;8.17;3.90;;;;;;;22.37;93.55;97765.81;5011426;28;20661;-66
2021/08/10 07:26:16;;;;;;;7.90;4.10;;;;;;;22.38;93.41;97767.53;5010210;28;20789;-67
2021/08/10 07:28:42;;;;;;;5.43;3.50;;;;;;;22.39;93.33;97770.97;5014285;28;20285;-66
2021/08/10 07:31:09;;;;;;;7.03;3.93;;;;;;;22.39;93.33;97768.41;5012267;28;20213;-67
2021/08/10 07:33:35;;;;;;;4.60;3.60;;;;;;;22.39;92.71;97773.53;5013277;28;20212;-66
2021/08/10 07:36:02;;;;;;;5.73;3.07;;;;;;;22.40;92.66;97772.69;5002704;28;20722;-66
2021/08/10 07:38:29;;;;;;;6.87;3.43;;;;;;;22.39;92.39;97766.72;5011043;28;20234;-65
2021/08/10 07:40:55;;;;;;;7.00;4.00;;;;;;;22.39;91.97;97774.41;5013307;28;20293;-63
2021/08/10 07:43:22;;;;;;;4.67;3.30;;;;;;;22.39;91.83;97771.84;5008761;28;20294;-67
2021/08/10 07:45:49;;;;;;;5.47;3.90;;;;;;;22.39;91.52;97776.09;5011522;28;20579;-65
2021/08/10 07:48:16;;;;;;;5.10;3.70;;;;;;;22.37;91.26;97773.47;5011698;28;20206;-66
2021/08/10 07:50:43;;;;;;;5.23;3.63;;;;;;;22.34;91.15;97777.63;5010698;28;20233;-65
2021/08/10 07:53:11;;;;;;;6.40;4.17;;;;;;;22.33;91.06;97784.47;5014689;28;20289;-66
2021/08/10 07:55:37;;;;;;;7.80;3.23;;;;;;;22.31;91.19;97772.41;5005650;28;20686;-66
2021/08/10 07:58:04;;;;;;;7.50;3.90;;;;;;;22.30;91.52;97766.44;5012751;28;20241;-66
2021/08/10 08:00:31;;;;;;;5.20;3.73;;;;;;;22.28;91.90;97768.09;5000815;28;20294;-66
2021/08/10 08:02:57;;;;;;;7.53;3.90;;;;;;;22.28;91.97;97751.84;5009339;28;20205;-66
2021/08/10 08:05:25;;;;;;;6.57;3.90;;;;;;;22.29;92.05;97758.72;5009209;28;20246;-67
2021/08/10 08:07:51;;;;;;;7.43;4.40;;;;;;;22.30;91.73;97757.88;5009420;28;20245;-66
2021/08/10 08:10:18;;;;;;;5.93;3.80;;;;;;;22.30;92.25;97755.34;5009376;28;20289;-67
2021/08/10 08:12:45;;;;;;;5.63;3.70;;;;;;;22.31;92.19;97739.13;5007203;28;20289;-63
2021/08/10 08:15:11;;;;;;;5.17;3.67;;;;;;;22.31;92.38;97745.13;5007397;28;20204;-65
2021/08/10 08:17:38;;;;;;;3.80;3.47;;;;;;;22.33;92.76;97738.38;5010079;28;20233;-66
2021/08/10 08:20:14;;;;;;;4.03;3.33;;;;;;;22.35;93.15;97735.88;5011493;28;20206;-66
2021/08/10 08:22:40;;;;;;;4.13;3.40;;;;;;;22.35;93.61;97739.28;5010639;28;20847;-67
2021/08/10 08:25:07;;;;;;;5.53;3.97;;;;;;;22.35;93.66;97730.75;5004861;28;20606;-66
2021/08/10 08:27:34;;;;;;;3.90;3.57;;;;;;;22.36;93.89;97735.91;5009348;28;20208;-66
2021/08/10 08:30:00;;;;;;;6.73;3.53;;;;;;;22.36;94.23;97733.34;5007871;28;20202;-66
2021/08/10 08:32:27;;;;;;;3.73;3.40;;;;;;;22.38;94.41;97739.34;5012485;28;20289;-66
2021/08/10 08:34:54;;;;;;;5.80;3.70;;;;;;;22.37;94.80;97727.38;5008553;28;20231;-66
2021/08/10 08:37:20;;;;;;;6.37;3.57;;;;;;;22.38;94.82;97741.91;5011708;28;20284;-65
2021/08/10 08:39:47;;;;;;;4.73;3.47;;;;;;;22.39;95.00;97736.00;5010355;28;20277;-65
2021/08/10 08:42:13;;;;;;;7.67;3.53;;;;;;;22.40;95.04;97736.84;4999948;28;20290;-64
2021/08/10 08:44:40;;;;;;;3.83;3.07;;;;;;;22.39;95.09;97736.00;5012418;28;20271;-67
2021/08/10 08:47:07;;;;;;;4.17;3.20;;;;;;;22.40;95.27;97736.84;5044652;22;20336;-59
2021/08/10 08:49:35;;;;;;;4.80;3.20;;;;;;;22.40;95.42;97749.66;5004360;28;20222;-59
2021/08/10 08:52:03;;;;;;;5.30;3.43;;;;;;;22.41;95.62;97741.16;5007231;28;20637;-60
2021/08/10 08:54:31;;;;;;;4.87;3.70;;;;;;;22.41;95.64;97738.59;5011127;28;20313;-59
2021/08/10 08:56:58;;;;;;;3.13;2.83;;;;;;;22.36;95.73;97738.47;4994370;28;20218;-61
2021/08/10 08:59:25;;;;;;;3.93;3.30;;;;;;;22.42;95.87;97745.44;5008683;28;20236;-59
2021/08/10 09:01:52;;;;;;;5.10;2.97;;;;;;;22.42;96.08;97745.44;5002045;28;20211;-61
2021/08/10 09:04:19;;;;;;;4.40;3.50;;;;;;;22.41;95.99;97733.47;5013159;28;20375;-60
2021/08/10 09:06:47;;;;;;;3.40;2.87;;;;;;;22.41;96.04;97742.00;5011503;28;20246;-59
2021/08/10 09:09:22;;;;;;;3.83;3.07;;;;;;;22.42;96.14;97737.75;5004650;28;20658;-60
2021/08/10 09:11:56;;;;;;;3.53;3.23;;;;;;;22.40;96.12;97731.72;5008985;28;20645;-60
2021/08/10 09:14:24;;;;;;;3.47;3.17;;;;;;;22.32;96.06;97710.16;4984835;28;20237;-59
2021/08/10 09:17:10;;;;;;;3.20;2.90;;;;;;;22.43;96.21;97730.13;5012163;28;20233;-60
2021/08/10 09:19:44;;;;;;;3.30;3.00;;;;;;;22.43;96.25;97717.31;5009046;28;20233;-59
2021/08/10 09:22:25;;;;;;;4.27;2.90;;;;;;;22.41;96.26;97713.00;5005411;28;20229;-59
2021/08/10 09:24:57;;;;;;;3.47;3.17;;;;;;;22.38;96.19;97708.63;5010495;28;20225;-59
2021/08/10 09:27:34;;;;;;;4.43;3.60;;;;;;;22.43;96.38;97714.75;5010125;28;20316;-60
2021/08/10 09:30:01;;;;;;;3.83;3.10;;;;;;;22.41;96.49;97711.28;5009223;28;20213;-60
2021/08/10 09:32:28;;;;;;;3.00;2.70;;;;;;;22.36;96.36;97707.75;5004877;28;20716;-59
2021/08/10 09:35:16;;;;;;;3.77;3.10;;;;;;;22.38;96.57;97710.34;5008523;28;20237;-59
2021/08/10 09:37:43;;;;;;;3.83;2.70;;;;;;;22.37;96.55;97711.16;5002446;28;20309;-59
2021/08/10 09:40:32;;;;;;;3.67;3.23;;;;;;;22.36;96.65;97702.63;5009076;28;20271;-61
2021/08/10 09:43:30;;;;;;;2.90;2.60;;;;;;;22.34;96.96;97701.69;5006685;28;20860;-59
2021/08/10 09:46:19;;;;;;;6.27;2.90;;;;;;;22.36;96.91;97704.31;5006281;28;20295;-61
2021/08/10 09:48:50;;;;;;;3.63;3.33;;;;;;;22.37;97.00;97703.47;5012046;28;20399;-60
2021/08/10 09:51:18;;;;;;;4.17;3.40;;;;;;;22.37;97.03;97701.78;5009001;28;20305;-60
2021/08/10 09:54:14;;;;;;;3.70;2.77;;;;;;;22.38;96.97;97697.53;5012356;28;20288;-59
2021/08/10 09:56:43;;;;;;;4.53;2.90;;;;;;;22.40;97.18;97695.88;5000137;28;20751;-61
2021/08/10 09:59:09;;;;;;;3.17;2.87;;;;;;;22.38;96.71;97693.25;5008322;28;20207;-60
2021/08/10 10:01:40;;;;;;;3.47;3.03;;;;;;;22.39;97.11;97697.59;5011896;28;20300;-59
2021/08/10 10:04:16;;;;;;;5.13;3.10;;;;;;;22.40;97.18;97699.31;5006870;28;20711;-61
2021/08/10 10:06:44;;;;;;;3.30;3.00;;;;;;;22.39;97.27;97695.03;5013759;28;20317;-60
2021/08/10 10:09:11;;;;;;;3.77;2.97;;;;;;;22.41;97.20;97695.06;5015317;28;20240;-59
2021/08/10 10:11:39;;;;;;;3.87;3.10;;;;;;;22.41;97.21;97689.94;5004931;28;20293;-60
2021/08/10 10:14:06;;;;;;;3.30;2.83;;;;;;;22.35;97.20;97684.66;5007709;28;20236;-61
2021/08/10 10:16:32;;;;;;;3.33;2.90;;;;;;;22.42;97.22;97690.00;5013394;28;20260;-60
2021/08/10 10:19:05;;;;;;;3.07;2.67;;;;;;;22.41;97.13;97679.69;4993900;28;20824;-60
2021/08/10 10:21:31;;;;;;;4.00;3.10;;;;;;;22.44;97.17;97679.78;5012530;28;20235;-60
2021/08/10 10:23:59;;;;;;;3.40;2.80;;;;;;;22.33;97.20;97653.88;5015879;28;20280;-61
2021/08/10 10:26:25;;;;;;;3.10;2.80;;;;;;;22.39;97.12;97665.97;5008413;28;20965;-60
2021/08/10 10:28:52;;;;;;;2.90;2.60;;;;;;;22.36;97.01;97658.22;5005636;28;20242;-59
2021/08/10 10:31:18;;;;;;;4.00;2.90;;;;;;;22.26;96.98;97645.97;4994723;28;20808;-60
2021/08/10 10:33:45;;;;;;;2.80;2.60;;;;;;;22.43;97.12;97668.66;4988883;28;20203;-60
2021/08/10 10:36:12;;;;;;;4.27;2.97;;;;;;;22.46;97.20;97678.13;4999753;28;20308;-59
2021/08/10 10:38:43;;;;;;;5.00;3.03;;;;;;;22.46;97.12;97667.88;5009902;28;20325;-60
2021/08/10 10:41:10;;;;;;;5.93;3.10;;;;;;;22.46;97.08;97676.44;4997601;28;20285;-59
2021/08/10 10:43:36;;;;;;;7.07;3.00;;;;;;;22.46;97.12;97668.75;5002231;28;20289;-60
2021/08/10 10:46:32;;;;;;;5.77;3.63;;;;;;;22.47;97.12;97669.63;5005992;28;20331;-59
2021/08/10 10:49:01;;;;;;;3.30;2.90;;;;;;;22.46;97.08;97666.19;5004762;28;20715;-59
2021/08/10 10:51:38;;;;;;;4.57;2.97;;;;;;;22.47;97.03;97664.50;5011038;28;20643;-58
2021/08/10 10:54:25;;;;;;;6.53;3.17;;;;;;;22.47;97.13;97657.66;5006749;28;20238;-60
2021/08/10 10:56:59;;;;;;;8.23;3.37;;;;;;;22.40;97.09;97644.66;5010829;28;20629;-61
2021/08/10 10:59:37;;;;;;;7.90;3.93;;;;;;;22.47;97.12;97656.81;4992772;28;20226;-60
2021/08/10 11:02:10;;;;;;;5.47;3.53;;;;;;;22.47;97.11;97657.66;5007397;28;20747;-60
2021/08/10 11:04:37;;;;;;;5.87;3.70;;;;;;;22.46;96.99;97655.94;5008335;28;20221;-61
2021/08/10 11:07:33;;;;;;;7.23;3.87;;;;;;;22.45;97.06;97661.03;5005846;28;20574;-59
2021/08/10 11:10:00;;;;;;;6.20;3.70;;;;;;;22.44;97.08;97656.75;5010653;28;20209;-59
2021/08/10 11:12:41;;;;;;;7.10;3.90;;;;;;;22.42;97.12;97655.81;5012800;28;20297;-60
2021/08/10 11:15:17;;;;;;;7.50;3.77;;;;;;;22.36;97.07;97637.72;5010111;28;20234;-59
2021/08/10 11:18:06;;;;;;;6.33;3.67;;;;;;;22.40;97.16;97650.66;5015910;28;20509;-59
2021/08/10 11:20:32;;;;;;;5.83;3.93;;;;;;;22.40;97.40;97647.22;5016270;28;20694;-59
2021/08/10 11:23:19;;;;;;;8.57;3.60;;;;;;;22.39;97.35;97641.25;5017880;28;20292;-60
2021/08/10 11:26:09;;;;;;;5.97;3.60;;;;;;;22.39;97.34;97641.25;5013269;28;20279;-60
2021/08/10 11:28:37;;;;;;;7.73;3.70;;;;;;;22.41;97.31;97643.84;4995859;28;20284;-61
2021/08/10 11:31:04;;;;;;;5.47;3.30;;;;;;;22.41;97.39;97639.56;5016880;28;20641;-59
2021/08/10 11:33:34;;;;;;;9.00;3.77;;;;;;;22.42;97.36;97640.44;5004939;28;20209;-59
2021/08/10 11:36:10;;;;;;;3.80;3.40;;;;;;;22.42;97.27;97633.66;5007066;28;20225;-61
2021/08/10 11:38:52;;;;;;;4.70;3.50;;;;;;;22.43;97.23;97634.50;5014329;28;20197;-60